Time;durP1;ratioP1;P1;durP2;ratioP2;P2;SDS_P1;SDS_P2;PMS_P1;PMS_P2;Temp;Humidity;BMP_temperature;BMP_pressure;BME280_temperature;BME280_humidity;BME280_pressure;Samples;Min_cycle;Max_cycle;Signal;HPM_P1;HPM_P2
2021/09/18 00:01:57;;;;;;;11.12;8.10;;;;;;;16.38;86.33;93708.95;1594798;89;21080;-61
2021/09/18 00:04:23;;;;;;;13.08;9.35;;;;;;;16.39;86.13;93702.14;1596800;89;21538;-62
2021/09/18 00:06:50;;;;;;;30.77;19.70;;;;;;;16.41;85.99;93703.15;1590535;89;21148;-61
2021/09/18 00:09:17;;;;;;;11.45;8.63;;;;;;;16.42;85.70;93701.11;1595881;89;21087;-62
2021/09/18 00:11:45;;;;;;;9.90;6.37;;;;;;;16.43;85.21;93701.23;1595003;88;21086;-62
2021/09/18 00:14:11;;;;;;;6.75;4.90;;;;;;;16.40;85.04;93700.88;1596407;89;21030;-62
2021/09/18 00:16:40;;;;;;;23.38;13.62;;;;;;;16.38;84.98;93696.47;1593398;88;21079;-61
2021/09/18 00:19:06;;;;;;;43.30;25.77;;;;;;;16.37;84.86;93697.73;1591383;89;21106;-61
2021/09/18 00:21:35;;;;;;;30.75;19.10;;;;;;;16.37;84.81;93697.08;1591635;88;21121;-62
2021/09/18 00:24:02;;;;;;;32.13;20.17;;;;;;;16.38;84.49;93700.63;1593523;89;20994;-62
2021/09/18 00:26:32;;;;;;;16.77;10.63;;;;;;;16.39;84.20;93699.36;1592710;89;21492;-62
2021/09/18 00:29:01;;;;;;;10.15;7.30;;;;;;;16.42;83.98;93692.78;1598613;89;21082;-62
2021/09/18 00:31:30;;;;;;;8.40;3.72;;;;;;;16.42;83.59;93696.95;1594643;89;21022;-61
2021/09/18 00:33:58;;;;;;;2.90;2.30;;;;;;;16.43;83.63;93697.07;1592494;89;21310;-61
2021/09/18 00:36:26;;;;;;;4.33;2.62;;;;;;;16.45;83.69;93698.70;1597227;88;21509;-62
2021/09/18 00:38:55;;;;;;;2.40;2.15;;;;;;;16.42;83.86;93696.95;1595008;89;21126;-62
2021/09/18 00:41:23;;;;;;;2.95;1.65;;;;;;;16.39;84.28;93700.10;1595253;89;21577;-62
2021/09/18 00:43:53;;;;;;;4.12;1.52;;;;;;;16.38;84.87;93693.69;1595357;89;21216;-63
2021/09/18 00:46:20;;;;;;;2.27;1.27;;;;;;;16.34;85.63;93696.72;1593872;88;21642;-62
2021/09/18 00:48:48;;;;;;;3.42;1.30;;;;;;;16.34;86.29;93700.11;1592713;88;21125;-62
2021/09/18 00:51:17;;;;;;;3.37;1.50;;;;;;;16.33;86.58;93697.95;1592356;89;21142;-61
2021/09/18 00:53:45;;;;;;;2.17;1.20;;;;;;;16.32;86.67;93697.06;1592419;90;21609;-61
2021/09/18 00:56:13;;;;;;;4.10;1.40;;;;;;;16.29;86.82;93696.70;1591148;89;21125;-61
2021/09/18 00:58:42;;;;;;;1.40;1.30;;;;;;;16.25;86.93;93695.47;1572062;89;21443;-60
2021/09/18 01:01:09;;;;;;;3.40;1.32;;;;;;;16.18;87.38;93688.42;1591377;89;21106;-61
2021/09/18 01:03:37;;;;;;;2.20;1.20;;;;;;;16.12;87.46;93691.81;1593010;89;20987;-61
2021/09/18 01:06:03;;;;;;;1.30;1.20;;;;;;;16.09;87.67;93684.52;1592371;89;21089;-62
2021/09/18 01:08:30;;;;;;;1.65;1.20;;;;;;;16.08;88.01;93678.84;1595608;89;21936;-62
2021/09/18 01:10:58;;;;;;;1.87;1.25;;;;;;;16.08;87.95;93683.00;1590390;88;20963;-61
2021/09/18 01:13:26;;;;;;;1.50;1.40;;;;;;;16.06;88.14;93685.53;1594958;89;21027;-61
2021/09/18 01:15:54;;;;;;;1.40;1.30;;;;;;;16.02;88.38;93684.27;1595735;89;21109;-61
2021/09/18 01:18:21;;;;;;;2.52;1.32;;;;;;;15.97;88.64;93685.81;1594414;89;21533;-61
2021/09/18 01:20:50;;;;;;;5.08;1.40;;;;;;;15.92;89.00;93685.17;1592940;89;21089;-61
2021/09/18 01:23:20;;;;;;;1.85;1.35;;;;;;;15.91;89.51;93687.08;1594620;89;20979;-61
2021/09/18 01:25:47;;;;;;;1.70;1.40;;;;;;;15.92;89.63;93687.95;1594160;89;21082;-61
2021/09/18 01:28:16;;;;;;;5.47;1.40;;;;;;;15.92;89.76;93691.37;1593726;88;21074;-62
2021/09/18 01:30:45;;;;;;;1.65;1.35;;;;;;;15.92;89.67;93689.33;1590934;89;21067;-62
2021/09/18 01:33:12;;;;;;;1.40;1.30;;;;;;;15.85;89.39;93692.63;1594077;89;21161;-62
2021/09/18 01:35:41;;;;;;;1.40;1.30;;;;;;;15.79;89.55;93686.96;1596518;88;21586;-63
2021/09/18 01:38:07;;;;;;;1.60;1.50;;;;;;;15.75;89.58;93692.75;1591861;89;21191;-61
2021/09/18 01:40:38;;;;;;;1.10;1.10;;;;;;;15.71;89.92;93692.27;1594185;89;21075;-62
2021/09/18 01:43:06;;;;;;;4.37;2.50;;;;;;;15.74;89.99;93688.47;1591786;88;21023;-62
2021/09/18 01:45:34;;;;;;;7.28;2.15;;;;;;;15.74;90.02;93682.92;1594192;89;21550;-61
2021/09/18 01:48:07;;;;;;;2.10;1.50;;;;;;;15.74;90.45;93684.95;1594578;89;20971;-60
2021/09/18 01:50:41;;;;;;;1.40;1.25;;;;;;;15.77;90.66;93683.94;1593994;89;21248;-62
2021/09/18 01:53:07;;;;;;;2.15;1.30;;;;;;;15.77;90.52;93682.55;1597589;88;21161;-62
2021/09/18 01:55:35;;;;;;;1.32;1.20;;;;;;;15.73;90.66;93684.19;1599950;88;21089;-61
2021/09/18 01:58:02;;;;;;;6.30;1.27;;;;;;;15.73;90.65;93689.73;1598593;88;21183;-62
2021/09/18 02:00:29;;;;;;;1.50;1.35;;;;;;;15.75;90.90;93685.08;1595058;89;21113;-61
2021/09/18 02:02:57;;;;;;;3.42;1.30;;;;;;;15.76;90.90;93681.78;1594528;88;21031;-61
2021/09/18 02:05:26;;;;;;;2.65;1.40;;;;;;;15.75;90.86;93691.37;1598129;88;21078;-63
2021/09/18 02:07:54;;;;;;;3.98;1.30;;;;;;;15.72;90.90;93682.67;1594585;89;21082;-61
2021/09/18 02:10:23;;;;;;;4.45;1.27;;;;;;;15.72;90.99;93679.91;1594207;89;22067;-62
2021/09/18 02:12:52;;;;;;;1.55;1.45;;;;;;;15.70;91.09;93686.59;1597716;88;21558;-61
2021/09/18 02:15:20;;;;;;;2.15;1.30;;;;;;;15.63;91.26;93691.27;1594387;88;21196;-62
2021/09/18 02:17:49;;;;;;;8.38;1.50;;;;;;;15.57;91.52;93686.98;1595584;89;20999;-62
2021/09/18 02:20:17;;;;;;;3.02;1.30;;;;;;;15.54;91.78;93683.19;1595963;88;20975;-62
2021/09/18 02:22:46;;;;;;;5.78;1.30;;;;;;;15.56;91.84;93691.02;1595357;88;21030;-61
2021/09/18 02:25:15;;;;;;;2.02;1.30;;;;;;;15.55;91.98;93687.47;1591804;88;21109;-61
2021/09/18 02:27:42;;;;;;;3.42;1.30;;;;;;;15.57;92.00;93685.59;1595731;88;21043;-61
2021/09/18 02:30:14;;;;;;;1.45;1.22;;;;;;;15.58;91.98;93689.23;1594893;88;20991;-61
2021/09/18 02:32:42;;;;;;;1.40;1.30;;;;;;;15.60;92.03;93686.73;1591032;89;21056;-62
2021/09/18 02:35:12;;;;;;;4.08;1.20;;;;;;;15.62;92.38;93686.98;1597604;88;20975;-61
2021/09/18 02:37:40;;;;;;;1.42;1.32;;;;;;;15.65;92.27;93695.67;1595357;89;20991;-62
2021/09/18 02:40:09;;;;;;;3.92;1.10;;;;;;;15.67;92.27;93690.37;1594950;88;20998;-61
2021/09/18 02:42:42;;;;;;;1.32;1.05;;;;;;;15.66;92.03;93695.80;1594007;89;21161;-61
2021/09/18 02:45:10;;;;;;;1.47;1.37;;;;;;;15.63;92.00;93699.59;1616316;87;21130;-61
2021/09/18 02:47:36;;;;;;;3.00;1.62;;;;;;;15.62;92.38;93695.92;1594211;89;21204;-62
2021/09/18 02:50:06;;;;;;;7.95;1.67;;;;;;;15.64;92.63;93703.87;1592191;89;21038;-62
2021/09/18 02:52:33;;;;;;;1.32;1.22;;;;;;;15.65;92.30;93708.16;1594990;88;21070;-62
2021/09/18 02:54:59;;;;;;;1.30;1.20;;;;;;;15.61;92.39;93699.34;1592635;88;21019;-62
2021/09/18 02:57:27;;;;;;;4.22;1.20;;;;;;;15.61;92.52;93699.34;1592341;89;21086;-62
2021/09/18 02:59:55;;;;;;;1.37;1.15;;;;;;;15.62;92.44;93704.23;1593731;89;20971;-61
2021/09/18 03:02:22;;;;;;;3.77;1.22;;;;;;;15.59;92.45;93709.41;1591250;89;21705;-61
2021/09/18 03:04:49;;;;;;;2.83;1.22;;;;;;;15.52;92.60;93705.12;1597247;89;20982;-62
2021/09/18 03:07:16;;;;;;;3.58;1.20;;;;;;;15.49;92.87;93703.36;1594405;88;21502;-61
2021/09/18 03:09:44;;;;;;;5.15;1.30;;;;;;;15.47;92.95;93696.80;1592653;89;20987;-62
2021/09/18 03:12:11;;;;;;;3.33;1.30;;;;;;;15.44;93.20;93704.73;1596269;89;21166;-61
2021/09/18 03:14:39;;;;;;;2.33;1.30;;;;;;;15.43;93.56;93703.22;1596062;88;21023;-60
2021/09/18 03:17:07;;;;;;;4.80;1.50;;;;;;;15.44;93.92;93705.50;1596227;88;21225;-61
2021/09/18 03:19:35;;;;;;;2.12;1.35;;;;;;;15.43;93.94;93705.37;1592203;89;21574;-61
2021/09/18 03:22:04;;;;;;;5.28;1.60;;;;;;;15.43;93.88;93706.00;1594915;88;37181;-60
2021/09/18 03:24:33;;;;;;;1.30;1.20;;;;;;;15.40;93.95;93710.52;1599315;88;21500;-62
2021/09/18 03:27:02;;;;;;;1.57;1.37;;;;;;;15.37;94.16;93705.98;1618521;87;21083;-62
2021/09/18 03:29:30;;;;;;;6.17;1.60;;;;;;;15.33;94.42;93708.25;1598735;88;20982;-61
2021/09/18 03:31:58;;;;;;;5.80;1.92;;;;;;;15.30;94.71;93705.11;1594492;89;21086;-62
2021/09/18 03:34:25;;;;;;;10.23;1.65;;;;;;;15.29;94.78;93711.14;1593199;88;21036;-62
2021/09/18 03:36:52;;;;;;;6.87;1.82;;;;;;;15.28;95.00;93713.75;1598178;89;21144;-62
2021/09/18 03:39:19;;;;;;;3.92;1.80;;;;;;;15.27;95.05;93713.02;1593162;89;21051;-63
2021/09/18 03:41:47;;;;;;;2.98;1.92;;;;;;;15.27;95.32;93701.93;1593664;89;21154;-61
2021/09/18 03:44:15;;;;;;;2.58;1.95;;;;;;;15.27;95.29;93715.78;1596387;89;21546;-61
2021/09/18 03:46:41;;;;;;;3.02;2.65;;;;;;;15.25;95.41;93714.15;1596674;88;21022;-61
2021/09/18 03:49:09;;;;;;;3.45;2.08;;;;;;;15.25;95.54;93711.38;1592523;89;21133;-61
2021/09/18 03:51:36;;;;;;;2.52;2.02;;;;;;;15.27;95.73;93710.86;1596289;88;21086;-62
2021/09/18 03:54:03;;;;;;;3.75;1.90;;;;;;;15.31;95.99;93711.39;1594593;89;21665;-61
2021/09/18 03:56:30;;;;;;;2.62;2.20;;;;;;;15.37;96.12;93709.41;1595371;89;21049;-62
2021/09/18 03:58:58;;;;;;;2.58;2.30;;;;;;;15.45;95.95;93710.41;1595730;88;21534;-61
2021/09/18 04:01:25;;;;;;;4.65;2.20;;;;;;;15.49;95.34;93711.67;1595175;89;21964;-61
2021/09/18 04:03:53;;;;;;;3.00;2.40;;;;;;;15.52;94.96;93713.44;1598424;88;20994;-62
2021/09/18 04:06:21;;;;;;;8.13;2.37;;;;;;;15.53;94.84;93712.17;1597183;89;21474;-62
2021/09/18 04:08:47;;;;;;;2.75;2.42;;;;;;;15.52;94.59;93712.69;1596764;88;21593;-61
2021/09/18 04:11:14;;;;;;;4.67;2.40;;;;;;;15.51;94.50;93711.92;1593866;89;21082;-61
2021/09/18 04:13:41;;;;;;;6.12;3.10;;;;;;;15.51;94.38;93724.39;1600283;88;21220;-62
2021/09/18 04:16:07;;;;;;;4.65;2.90;;;;;;;15.45;94.20;93716.72;1597868;88;21010;-61
2021/09/18 04:18:36;;;;;;;6.12;3.12;;;;;;;15.40;94.56;93723.63;1597808;89;21025;-61
2021/09/18 04:21:03;;;;;;;5.12;3.40;;;;;;;15.40;94.78;93717.45;1598745;88;21493;-60
2021/09/18 04:23:33;;;;;;;8.50;3.75;;;;;;;15.41;94.58;93723.15;1596032;88;21046;-60
2021/09/18 04:26:01;;;;;;;7.75;4.95;;;;;;;15.42;94.49;93730.81;1596946;87;20983;-61
2021/09/18 04:28:28;;;;;;;8.90;6.17;;;;;;;15.40;94.28;93725.77;1603598;88;20967;-61
2021/09/18 04:30:54;;;;;;;10.32;6.85;;;;;;;15.35;94.21;93726.52;1593669;88;21593;-62
2021/09/18 04:33:23;;;;;;;15.32;5.67;;;;;;;15.29;94.55;93728.53;1597391;88;21035;-60
2021/09/18 04:35:50;;;;;;;10.23;6.37;;;;;;;15.28;94.70;93721.45;1593764;88;21447;-61
2021/09/18 04:38:17;;;;;;;10.18;7.03;;;;;;;15.27;94.93;93719.94;1597136;89;21084;-61
2021/09/18 04:40:44;;;;;;;9.88;7.25;;;;;;;15.31;95.64;93723.25;1600330;87;21078;-61
2021/09/18 04:43:11;;;;;;;10.82;7.80;;;;;;;15.37;95.66;93728.80;1595818;89;21032;-61
2021/09/18 04:45:38;;;;;;;7.17;5.83;;;;;;;15.43;95.55;93730.94;1598092;89;21101;-62
2021/09/18 04:48:05;;;;;;;9.18;5.92;;;;;;;15.42;95.14;93730.81;1593694;88;21039;-61
2021/09/18 04:50:32;;;;;;;9.00;4.75;;;;;;;15.39;95.00;93727.67;1595483;89;21149;-61
2021/09/18 04:52:59;;;;;;;7.70;4.53;;;;;;;15.35;95.26;93729.29;1601133;88;21561;-62
2021/09/18 04:55:26;;;;;;;8.15;5.00;;;;;;;15.37;95.56;93730.93;1596294;89;21122;-61
2021/09/18 04:57:52;;;;;;;5.85;4.37;;;;;;;15.36;95.37;93736.34;1595333;89;21006;-63
2021/09/18 05:00:21;;;;;;;5.17;4.05;;;;;;;15.38;95.82;93733.83;1592856;89;20994;-62
2021/09/18 05:02:48;;;;;;;7.47;3.83;;;;;;;15.45;95.52;93736.73;1591497;89;21167;-62
2021/09/18 05:05:16;;;;;;;7.08;3.92;;;;;;;15.46;95.35;93738.25;1591084;89;20999;-60
2021/09/18 05:07:44;;;;;;;6.60;3.33;;;;;;;15.47;95.56;93746.69;1593405;89;21042;-61
2021/09/18 05:10:11;;;;;;;4.90;2.33;;;;;;;15.47;95.42;93741.91;1590469;89;22090;-61
2021/09/18 05:12:38;;;;;;;4.60;2.33;;;;;;;15.45;95.02;93742.28;1593067;88;21007;-61
2021/09/18 05:15:07;;;;;;;4.28;2.42;;;;;;;15.42;94.87;93737.13;1598727;88;21513;-61
2021/09/18 05:17:35;;;;;;;3.70;2.52;;;;;;;15.41;94.80;93739.77;1593708;88;21527;-60
2021/09/18 05:20:05;;;;;;;7.78;3.45;;;;;;;15.40;94.68;93741.01;1596646;88;21130;-62
2021/09/18 05:22:32;;;;;;;4.03;3.37;;;;;;;15.37;94.77;93739.89;1598715;89;21554;-61
2021/09/18 05:24:59;;;;;;;9.05;2.80;;;;;;;15.40;94.90;93737.49;1595666;89;21122;-62
2021/09/18 05:27:25;;;;;;;4.78;3.00;;;;;;;15.41;94.82;93737.63;1593322;89;21996;-62
2021/09/18 05:29:54;;;;;;;5.75;2.65;;;;;;;15.43;95.03;93742.80;1592775;89;21046;-62
2021/09/18 05:32:22;;;;;;;6.75;3.10;;;;;;;15.48;95.14;93743.42;1596227;88;21070;-60
2021/09/18 05:34:49;;;;;;;4.42;2.98;;;;;;;15.53;95.09;93746.83;1594925;88;21065;-62
2021/09/18 05:37:17;;;;;;;5.95;2.80;;;;;;;15.57;94.89;93742.42;1595867;88;21200;-60
2021/09/18 05:39:44;;;;;;;4.95;2.85;;;;;;;15.59;94.51;93742.06;1598498;88;21515;-62
2021/09/18 05:42:11;;;;;;;6.03;2.95;;;;;;;15.63;94.50;93752.27;1597920;89;20982;-61
2021/09/18 05:44:40;;;;;;;5.80;3.55;;;;;;;15.66;94.34;93749.87;1596103;88;21086;-61
2021/09/18 05:47:08;;;;;;;4.92;3.25;;;;;;;15.65;94.41;93755.29;1593431;89;21617;-62
2021/09/18 05:49:35;;;;;;;3.70;2.62;;;;;;;15.64;94.19;93755.16;1600230;89;21580;-60
2021/09/18 05:52:03;;;;;;;4.50;2.45;;;;;;;15.67;94.26;93753.38;1601590;88;21169;-62
2021/09/18 05:54:32;;;;;;;2.77;2.20;;;;;;;15.70;94.18;93756.56;1597609;88;21042;-62
2021/09/18 05:56:59;;;;;;;5.15;2.58;;;;;;;15.75;94.20;93753.02;1591171;89;21586;-62
2021/09/18 05:59:26;;;;;;;3.70;2.83;;;;;;;15.81;94.36;93749.61;1593054;89;21124;-61
2021/09/18 06:01:54;;;;;;;5.37;3.02;;;;;;;15.92;93.98;93755.91;1596350;88;21015;-62
2021/09/18 06:04:21;;;;;;;7.30;3.20;;;;;;;16.03;92.84;93756.53;1594078;88;21162;-61
2021/09/18 06:06:48;;;;;;;3.12;2.83;;;;;;;16.15;92.05;93756.66;1588787;89;20994;-62
2021/09/18 06:09:15;;;;;;;3.45;2.83;;;;;;;16.14;89.96;93755.92;1595168;89;21046;-61
2021/09/18 06:11:42;;;;;;;4.47;3.42;;;;;;;16.16;88.85;93760.33;1594079;89;21063;-61
2021/09/18 06:14:10;;;;;;;5.37;4.00;;;;;;;16.15;88.06;93756.03;1595765;88;21037;-62
2021/09/18 06:16:37;;;;;;;7.75;4.75;;;;;;;16.21;87.56;93760.94;1600482;89;21183;-62
2021/09/18 06:19:04;;;;;;;5.40;3.80;;;;;;;16.28;86.83;93757.02;1600044;88;21084;-61
2021/09/18 06:21:31;;;;;;;3.52;2.70;;;;;;;16.36;87.29;93761.45;1595135;89;20994;-62
2021/09/18 06:23:59;;;;;;;11.20;5.95;;;;;;;16.43;87.79;93764.47;1597034;88;20967;-61
2021/09/18 06:26:26;;;;;;;5.20;4.12;;;;;;;16.48;86.42;93765.08;1593185;88;21533;-61
2021/09/18 06:28:53;;;;;;;4.60;3.90;;;;;;;16.54;86.47;93769.24;1592749;89;21062;-63
2021/09/18 06:31:21;;;;;;;4.17;2.70;;;;;;;16.60;86.84;93765.19;1596206;89;21467;-62
2021/09/18 06:33:51;;;;;;;6.35;3.87;;;;;;;16.57;82.62;93766.18;1594110;89;20982;-62
2021/09/18 06:36:21;;;;;;;4.37;3.85;;;;;;;16.55;81.81;93772.14;1595198;89;21011;-62
2021/09/18 06:38:50;;;;;;;4.00;3.60;;;;;;;16.56;83.00;93770.88;1597653;89;21471;-62
2021/09/18 06:41:16;;;;;;;5.40;3.87;;;;;;;16.57;84.40;93778.67;1596095;89;21778;-62
2021/09/18 06:43:43;;;;;;;5.12;3.70;;;;;;;16.60;85.18;93778.30;1595935;88;21552;-62
2021/09/18 06:46:10;;;;;;;6.67;5.90;;;;;;;16.62;84.75;93771.60;1592041;89;21034;-63
2021/09/18 06:48:38;;;;;;;13.00;8.65;;;;;;;16.67;84.75;93781.94;1592070;89;21017;-62
2021/09/18 06:51:05;;;;;;;3.55;3.22;;;;;;;16.68;84.63;93784.22;1594640;89;21003;-63
2021/09/18 06:53:34;;;;;;;5.17;3.12;;;;;;;16.66;79.31;93779.03;1594954;88;21094;-62
2021/09/18 06:56:00;;;;;;;5.65;3.87;;;;;;;16.61;79.03;93782.59;1615594;87;21539;-62
2021/09/18 06:58:28;;;;;;;3.65;3.20;;;;;;;16.57;77.96;93783.48;1595473;89;21486;-65
2021/09/18 07:00:55;;;;;;;6.87;3.47;;;;;;;16.55;77.50;93777.69;1595134;89;21864;-63
2021/09/18 07:03:24;;;;;;;5.40;4.87;;;;;;;16.51;77.26;93775.81;1593971;89;21023;-61
2021/09/18 07:05:51;;;;;;;9.48;4.35;;;;;;;16.51;77.05;93785.53;1594440;89;21939;-63
2021/09/18 07:08:19;;;;;;;6.28;4.80;;;;;;;16.50;77.38;93778.44;1594943;89;21018;-63
2021/09/18 07:10:46;;;;;;;4.87;4.37;;;;;;;16.54;77.00;93776.18;1594128;89;21074;-62
2021/09/18 07:13:12;;;;;;;5.37;3.95;;;;;;;16.59;76.45;93775.41;1598681;89;21459;-61
2021/09/18 07:15:39;;;;;;;5.50;4.22;;;;;;;16.66;76.37;93777.65;1592073;89;21031;-62
2021/09/18 07:18:06;;;;;;;3.62;3.33;;;;;;;16.72;75.85;93771.46;1596947;89;22002;-62
2021/09/18 07:20:33;;;;;;;4.10;3.67;;;;;;;16.78;75.24;93776.36;1595234;89;20984;-63
2021/09/18 07:23:01;;;;;;;4.62;4.17;;;;;;;16.80;74.83;93773.20;1593121;89;20990;-61
2021/09/18 07:25:28;;;;;;;4.92;4.00;;;;;;;16.86;74.66;93778.72;1591705;88;21625;-62
2021/09/18 07:27:55;;;;;;;5.25;4.28;;;;;;;16.91;74.69;93775.19;1593287;89;21217;-62
2021/09/18 07:30:22;;;;;;;4.22;3.83;;;;;;;16.94;74.52;93774.90;1613768;87;21194;-62
2021/09/18 07:32:50;;;;;;;4.90;4.37;;;;;;;16.98;73.62;93781.59;1595792;89;20967;-63
2021/09/18 07:35:19;;;;;;;6.60;5.10;;;;;;;17.01;73.37;93784.73;1594366;89;21098;-63
2021/09/18 07:37:46;;;;;;;6.15;4.62;;;;;;;17.04;73.50;93789.26;1596104;89;21018;-63
2021/09/18 07:40:13;;;;;;;6.62;5.50;;;;;;;17.06;73.84;93787.48;1591504;89;21094;-63
2021/09/18 07:42:41;;;;;;;7.28;4.67;;;;;;;17.07;73.38;93791.78;1593195;89;21328;-61
2021/09/18 07:45:11;;;;;;;5.50;4.03;;;;;;;17.09;72.99;93787.85;1594963;89;20971;-63
2021/09/18 07:47:40;;;;;;;16.42;5.03;;;;;;;17.14;71.88;93782.16;1593945;88;21577;-61
2021/09/18 07:50:09;;;;;;;21.10;13.98;;;;;;;17.20;72.41;93789.83;1594657;89;21030;-62
2021/09/18 07:52:36;;;;;;;6.78;5.25;;;;;;;17.24;71.48;93794.50;1593459;89;21531;-62
2021/09/18 07:55:05;;;;;;;10.93;5.40;;;;;;;17.27;71.88;93794.86;1595100;89;21243;-62
2021/09/18 07:57:32;;;;;;;16.23;12.20;;;;;;;17.31;71.30;93798.13;1594379;89;21585;-62
2021/09/18 07:59:59;;;;;;;11.45;4.58;;;;;;;17.34;71.66;93792.33;1591712;89;21010;-62
2021/09/18 08:02:27;;;;;;;7.67;5.15;;;;;;;17.38;70.25;93792.80;1595343;89;21023;-60
2021/09/18 08:04:53;;;;;;;8.58;5.03;;;;;;;17.42;70.56;93798.84;1595261;89;21546;-62
2021/09/18 08:07:21;;;;;;;14.87;4.50;;;;;;;17.45;70.83;93796.42;1591840;89;21207;-62
2021/09/18 08:09:49;;;;;;;3.80;3.10;;;;;;;17.53;70.65;93800.19;1597196;89;21010;-62
2021/09/18 08:12:18;;;;;;;8.78;4.50;;;;;;;17.63;69.93;93792.29;1592731;89;21501;-62
2021/09/18 08:14:47;;;;;;;5.33;3.87;;;;;;;17.75;69.95;93792.32;1593954;89;21105;-64
2021/09/18 08:17:13;;;;;;;4.85;4.10;;;;;;;17.87;68.98;93800.09;1595151;89;21022;-62
2021/09/18 08:19:41;;;;;;;8.53;5.15;;;;;;;17.97;66.45;93800.53;1593375;89;21232;-63
2021/09/18 08:22:08;;;;;;;23.75;4.33;;;;;;;18.11;66.05;93797.37;1593673;89;21523;-65
2021/09/18 08:24:37;;;;;;;11.60;4.22;;;;;;;18.27;65.69;93794.48;1597680;89;21031;-63
2021/09/18 08:27:03;;;;;;;8.70;4.10;;;;;;;18.47;65.58;93798.88;1595566;89;21510;-64
2021/09/18 08:29:30;;;;;;;6.08;3.40;;;;;;;18.61;64.89;93799.86;1596124;89;21098;-62
2021/09/18 08:31:57;;;;;;;6.97;5.00;;;;;;;18.66;62.08;93807.41;1594449;89;21145;-64
2021/09/18 08:34:24;;;;;;;14.85;3.67;;;;;;;18.64;61.77;93802.25;1596947;89;22304;-63
2021/09/18 08:36:51;;;;;;;11.12;3.77;;;;;;;18.65;61.48;93802.38;1602456;89;21486;-65
2021/09/18 08:39:17;;;;;;;6.35;2.98;;;;;;;18.72;62.01;93800.39;1592860;89;21038;-63
2021/09/18 08:41:47;;;;;;;10.80;3.30;;;;;;;18.85;62.15;93802.64;1591340;89;21057;-63
2021/09/18 08:44:18;;;;;;;3.50;2.62;;;;;;;19.00;60.86;93800.20;1596047;89;21164;-62
2021/09/18 08:46:44;;;;;;;13.00;3.50;;;;;;;19.21;59.56;93804.04;1596846;89;21110;-63
2021/09/18 08:49:13;;;;;;;2.95;2.65;;;;;;;19.35;58.66;93795.14;1573219;89;21139;-62
2021/09/18 08:51:40;;;;;;;3.37;2.83;;;;;;;19.35;55.35;93798.67;1597908;88;21046;-63
2021/09/18 08:54:08;;;;;;;7.03;2.77;;;;;;;19.36;53.85;93807.16;1597432;89;21102;-65
2021/09/18 08:56:35;;;;;;;4.45;2.42;;;;;;;19.41;56.33;93806.32;1593484;88;21857;-64
2021/09/18 08:59:03;;;;;;;8.35;2.50;;;;;;;19.41;54.16;93800.74;1598152;89;21585;-63
2021/09/18 09:01:33;;;;;;;5.42;2.60;;;;;;;19.39;52.35;93808.15;1595767;88;21013;-63
2021/09/18 09:04:01;;;;;;;2.80;2.55;;;;;;;19.32;51.70;93803.91;1597975;88;21500;-63
2021/09/18 09:06:50;;;;;;;2.30;2.10;;;;;;;19.31;52.50;93797.45;1596484;89;21046;-65
2021/09/18 09:09:17;;;;;;;2.60;2.40;;;;;;;19.36;53.73;93802.23;1590222;89;21546;-62
2021/09/18 09:11:50;;;;;;;2.72;2.52;;;;;;;19.48;53.17;93807.14;1591501;89;21082;-63
2021/09/18 09:14:18;;;;;;;3.08;2.77;;;;;;;19.58;52.64;93806.13;1596770;88;21034;-65
2021/09/18 09:17:04;;;;;;;15.45;2.87;;;;;;;19.72;51.36;93802.87;1594725;88;21209;-63
2021/09/18 09:19:41;;;;;;;2.35;2.10;;;;;;;19.82;50.89;93796.27;1595409;89;21057;-62
2021/09/18 09:22:09;;;;;;;2.40;2.20;;;;;;;19.92;49.22;93814.89;1592839;88;21126;-62
2021/09/18 09:24:37;;;;;;;4.50;2.80;;;;;;;19.89;48.46;93806.18;1596834;88;21132;-63
2021/09/18 09:27:10;;;;;;;2.33;2.12;;;;;;;19.89;49.83;93799.20;1576424;88;21121;-63
2021/09/18 09:29:54;;;;;;;3.17;2.00;;;;;;;19.95;49.25;93811.03;1596918;89;21054;-62
2021/09/18 09:32:33;;;;;;;2.50;2.30;;;;;;;20.02;47.47;93803.48;1594136;89;21045;-62
2021/09/18 09:35:12;;;;;;;4.95;2.25;;;;;;;20.07;48.30;93815.20;1595409;88;20983;-61
2021/09/18 09:37:40;;;;;;;4.40;2.65;;;;;;;20.13;49.06;93806.09;1591340;89;20979;-62
2021/09/18 09:40:09;;;;;;;7.05;2.45;;;;;;;20.26;47.87;93808.94;1575322;89;21100;-63
2021/09/18 09:42:40;;;;;;;9.65;4.00;;;;;;;20.14;46.86;93803.41;1591544;89;21086;-62
2021/09/18 09:45:19;;;;;;;6.80;3.12;;;;;;;19.87;46.52;93815.73;1576236;89;21078;-61
2021/09/18 09:47:49;;;;;;;3.50;2.27;;;;;;;19.64;46.49;93808.19;1594902;88;21239;-62
2021/09/18 09:50:19;;;;;;;2.50;2.30;;;;;;;19.69;45.87;93815.72;1590949;89;21155;-62
2021/09/18 09:52:48;;;;;;;2.37;1.90;;;;;;;19.66;45.36;93816.16;1593596;89;21057;-62
2021/09/18 09:55:18;;;;;;;4.83;2.40;;;;;;;19.66;45.76;93807.78;1593394;89;21114;-63
2021/09/18 09:57:48;;;;;;;5.03;2.20;;;;;;;19.77;46.12;93809.01;1590910;88;21035;-63
2021/09/18 10:00:16;;;;;;;2.22;2.00;;;;;;;19.95;45.61;93818.02;1591568;89;21212;-62
2021/09/18 10:02:43;;;;;;;2.85;1.70;;;;;;;20.07;45.56;93809.63;1597279;89;21447;-62
2021/09/18 10:05:13;;;;;;;2.83;2.30;;;;;;;20.19;46.06;93808.91;1595026;88;21114;-61
2021/09/18 10:07:40;;;;;;;2.27;2.00;;;;;;;20.48;45.57;93816.95;1592827;88;21010;-63
2021/09/18 10:10:11;;;;;;;12.95;2.00;;;;;;;20.95;44.86;93809.56;1597756;89;20998;-63
2021/09/18 10:12:39;;;;;;;;;;;;;;;21.47;43.55;93810.95;1598893;88;21087;-63
2021/09/18 10:15:10;;;;;;;5.80;1.87;;;;;;;21.94;43.36;93813.14;1592844;89;20436;-66
2021/09/18 10:17:42;;;;;;;1.80;1.70;;;;;;;22.31;42.62;93818.50;1575731;89;21050;-63
2021/09/18 10:20:13;;;;;;;13.45;2.22;;;;;;;22.56;42.53;93816.16;1594072;89;21093;-64
2021/09/18 10:25:33;;;;;;;4.33;2.12;;;;;;;23.21;40.91;93812.31;1591584;89;21107;-62
2021/09/18 10:28:21;;;;;;;8.10;2.37;;;;;;;23.51;40.19;93811.09;1599572;88;21094;-66
2021/09/18 10:30:54;;;;;;;2.87;2.20;;;;;;;23.74;39.05;93811.95;1594212;89;21135;-63
2021/09/18 10:33:44;;;;;;;9.93;2.02;;;;;;;23.82;40.12;93808.57;1592291;89;21482;-64
2021/09/18 10:36:40;;;;;;;3.40;1.72;;;;;;;23.85;39.21;93806.69;1597972;89;20987;-64
2021/09/18 10:39:16;;;;;;;10.40;2.35;;;;;;;23.98;39.04;93803.08;1593886;88;21279;-65
2021/09/18 10:41:47;;;;;;;5.20;2.08;;;;;;;24.31;38.00;93802.83;1594129;88;21142;-64
2021/09/18 10:44:15;;;;;;;23.23;2.77;;;;;;;24.62;37.81;93803.66;1594843;89;21504;-65
2021/09/18 10:46:58;;;;;;;2.67;2.10;;;;;;;24.79;37.61;93803.86;1592054;88;21007;-65
2021/09/18 10:49:37;;;;;;;13.98;3.33;;;;;;;24.94;36.77;93799.64;1591412;88;21128;-62
2021/09/18 10:52:32;;;;;;;2.55;2.00;;;;;;;25.01;36.83;93798.88;1595999;88;21137;-64
2021/09/18 10:55:10;;;;;;;4.30;1.95;;;;;;;25.02;36.65;93796.92;1590891;89;20994;-63
2021/09/18 10:57:48;;;;;;;6.87;1.87;;;;;;;24.94;37.08;93800.38;1598840;88;21077;-64
2021/09/18 11:00:27;;;;;;;5.95;2.17;;;;;;;24.81;36.25;93805.45;1596195;88;21056;-63
2021/09/18 11:03:01;;;;;;;7.92;2.08;;;;;;;24.48;36.52;93808.67;1597892;88;21122;-63
2021/09/18 11:05:41;;;;;;;6.40;2.52;;;;;;;24.29;37.37;93804.69;1588772;89;21171;-63
2021/09/18 11:08:20;;;;;;;2.80;2.17;;;;;;;24.49;37.00;93810.17;1595419;89;21113;-62
2021/09/18 11:10:56;;;;;;;4.85;2.40;;;;;;;24.77;36.42;93802.27;1593544;88;21538;-63
2021/09/18 11:13:32;;;;;;;3.52;2.20;;;;;;;24.52;36.70;93802.05;1596294;88;21137;-63
2021/09/18 11:16:05;;;;;;;2.30;1.92;;;;;;;24.31;36.80;93824.55;1589212;88;20994;-64
2021/09/18 11:18:41;;;;;;;10.43;1.98;;;;;;;24.32;37.64;93814.16;1598400;88;21164;-62
2021/09/18 11:21:18;;;;;;;6.92;2.33;;;;;;;24.30;36.92;93816.02;1600108;88;20991;-62
2021/09/18 11:23:58;;;;;;;1.77;1.67;;;;;;;24.21;37.04;93816.58;1572728;89;21020;-62
2021/09/18 11:26:38;;;;;;;8.75;2.15;;;;;;;23.95;37.70;93809.82;1592359;89;21161;-63
2021/09/18 11:29:13;;;;;;;3.45;1.92;;;;;;;23.90;37.78;93820.58;1594650;89;21149;-63
2021/09/18 11:32:12;;;;;;;1.80;1.65;;;;;;;23.88;38.22;93816.17;1595897;87;21116;-64
2021/09/18 11:34:44;;;;;;;2.35;1.50;;;;;;;23.69;38.18;93829.73;1595977;89;21122;-64
2021/09/18 11:37:26;;;;;;;2.85;1.57;;;;;;;23.47;38.51;93823.34;1597803;88;21110;-64
2021/09/18 11:39:57;;;;;;;4.53;1.95;;;;;;;23.80;38.10;93825.84;1597654;89;21094;-63
2021/09/18 11:42:34;;;;;;;17.65;3.17;;;;;;;24.12;37.70;93815.05;1597280;88;21550;-62
2021/09/18 11:45:12;;;;;;;14.95;2.10;;;;;;;24.54;37.10;93814.89;1598047;89;21978;-64